Weather at Camooweal Airport

Public forecast

Using degrees Celsius for public forecast. Weather courtesy of forecast.io.

Closest aviation weather report (METAR) to Camooweal Airport

Closest report is Mount Isa Airport, 89.1 nm (165.0 km) ESE. Retrieved 2021/05/17 22:00 UTC (18 minutes ago):

YBMA 172200Z AUTO 12007KT 9999 // NCD 17/M07 Q1020

Closest aviation forecast (TAF) to Camooweal Airport

Closest forecast is Mount Isa Airport, 89.1 nm (165.0 km) ESE. Retrieved 2021/05/17 18:03 UTC (4 hours ago):

TAF TAF YBMA 171606Z 1718/1806 16014KT CAVOK